createdAt,value
2023-02-12T00:01:26.365Z,15.30
2023-02-12T00:03:54.755Z,12.40
2023-02-12T00:06:23.106Z,18.70
2023-02-12T00:08:52.067Z,18.50
2023-02-12T00:11:21.857Z,9.50
2023-02-12T00:13:50.181Z,10.70
2023-02-12T00:16:20.197Z,10.90
2023-02-12T00:18:48.463Z,15.10
2023-02-12T00:21:17.464Z,17.20
2023-02-12T00:23:45.438Z,13.40
2023-02-12T00:26:15.148Z,13.60
2023-02-12T00:28:43.020Z,12.30
2023-02-12T00:31:13.271Z,17.80
2023-02-12T00:33:41.813Z,17.00
2023-02-12T00:36:10.887Z,16.70
2023-02-12T00:38:38.749Z,10.90
2023-02-12T00:41:06.712Z,10.60
2023-02-12T00:43:34.766Z,10.40
2023-02-12T00:46:03.331Z,10.80
2023-02-12T00:48:31.279Z,11.20
2023-02-12T00:50:59.925Z,9.70
2023-02-12T00:53:28.103Z,10.20
2023-02-12T00:55:56.793Z,10.30
2023-02-12T00:58:24.941Z,10.10
2023-02-12T01:00:53.560Z,13.30
2023-02-12T01:03:21.781Z,10.30
2023-02-12T01:05:50.436Z,11.00
2023-02-12T01:08:18.490Z,10.60
2023-02-12T01:10:54.242Z,9.60
2023-02-12T01:13:22.147Z,10.00
2023-02-12T01:15:50.005Z,10.30
2023-02-12T01:18:18.337Z,10.00
2023-02-12T01:20:46.155Z,10.50
2023-02-12T01:23:13.979Z,10.30
2023-02-12T01:25:41.849Z,18.20
2023-02-12T01:28:10.732Z,10.90
2023-02-12T01:30:38.914Z,10.80
2023-02-12T01:33:06.889Z,10.60
2023-02-12T01:35:34.727Z,10.50
2023-02-12T01:38:02.502Z,10.00
2023-02-12T01:40:30.478Z,9.60
2023-02-12T01:43:00.692Z,10.10
2023-02-12T01:45:28.525Z,10.00
2023-02-12T01:47:57.345Z,10.30
2023-02-12T01:50:25.311Z,10.00
2023-02-12T01:52:55.925Z,10.80
2023-02-12T01:55:24.837Z,10.70
2023-02-12T01:57:52.883Z,10.20
2023-02-12T02:00:22.349Z,11.00
2023-02-12T02:02:55.432Z,10.70
2023-02-12T02:05:29.656Z,10.00
2023-02-12T02:07:57.935Z,10.90
2023-02-12T02:10:26.042Z,11.20
2023-02-12T02:13:12.670Z,10.20
2023-02-12T02:15:41.780Z,10.70
2023-02-12T02:18:18.015Z,11.40
2023-02-12T02:20:55.934Z,11.00
2023-02-12T02:23:42.545Z,11.30
2023-02-12T02:26:22.883Z,11.30
2023-02-12T02:29:23.152Z,11.90
2023-02-12T02:32:01.077Z,11.60
2023-02-12T02:34:34.804Z,10.50
2023-02-12T02:37:14.304Z,11.40
2023-02-12T02:39:47.564Z,11.00
2023-02-12T02:42:27.179Z,11.20
2023-02-12T02:44:58.340Z,18.40
2023-02-12T02:47:38.960Z,12.10
2023-02-12T02:50:09.480Z,11.90
2023-02-12T02:52:43.308Z,11.10
2023-02-12T02:55:13.232Z,11.60
2023-02-12T02:57:59.848Z,10.80
2023-02-12T03:00:48.971Z,11.10
2023-02-12T03:03:22.227Z,11.00
2023-02-12T03:05:51.901Z,11.70
2023-02-12T03:08:27.131Z,11.30
2023-02-12T03:11:01.353Z,11.80
2023-02-12T03:13:42.158Z,11.10
2023-02-12T03:16:14.323Z,10.80
2023-02-12T03:18:45.313Z,10.60
2023-02-12T03:21:15.965Z,11.40
2023-02-12T03:23:47.841Z,11.60
2023-02-12T03:26:18.440Z,11.20
2023-02-12T03:28:46.289Z,11.60
2023-02-12T03:31:20.188Z,11.40
2023-02-12T03:34:06.231Z,11.30
2023-02-12T03:36:42.934Z,10.20
2023-02-12T03:39:16.752Z,11.50
2023-02-12T03:41:50.229Z,11.40
2023-02-12T03:44:39.715Z,11.70
2023-02-12T03:47:17.463Z,11.00
2023-02-12T03:50:01.117Z,11.70
2023-02-12T03:52:29.348Z,11.90
2023-02-12T03:54:57.654Z,12.30
2023-02-12T03:57:32.318Z,12.10
2023-02-12T04:00:02.387Z,12.30
2023-02-12T04:02:31.175Z,11.70
2023-02-12T04:05:04.230Z,12.50
2023-02-12T04:07:32.352Z,12.40
2023-02-12T04:10:00.358Z,12.40
2023-02-12T04:12:32.985Z,12.70
2023-02-12T04:15:06.992Z,12.20
2023-02-12T04:17:44.468Z,12.60
2023-02-12T04:20:31.290Z,12.70
2023-02-12T04:23:05.057Z,12.70
2023-02-12T04:25:43.401Z,13.60
2023-02-12T04:28:20.500Z,12.70
2023-02-12T04:30:55.945Z,12.50
2023-02-12T04:33:25.744Z,12.70
2023-02-12T04:36:06.715Z,13.20
2023-02-12T04:38:40.624Z,13.10
2023-02-12T04:41:08.786Z,12.70
2023-02-12T04:43:37.428Z,12.50
2023-02-12T04:46:06.578Z,13.00
2023-02-12T04:48:35.181Z,14.10
2023-02-12T04:51:03.277Z,13.00
2023-02-12T04:53:31.178Z,14.50
2023-02-12T04:55:58.962Z,12.70
2023-02-12T04:58:26.929Z,14.10
2023-02-12T05:00:54.920Z,15.00
2023-02-12T05:03:22.871Z,13.50
2023-02-12T05:05:50.632Z,14.00
2023-02-12T05:08:18.464Z,14.00
2023-02-12T05:10:46.253Z,15.10
2023-02-12T05:13:14.104Z,14.00
2023-02-12T05:15:41.914Z,14.50
2023-02-12T05:18:10.123Z,15.10
2023-02-12T05:20:38.234Z,14.50
2023-02-12T05:23:06.117Z,14.90
2023-02-12T05:25:34.067Z,15.20
2023-02-12T05:28:02.165Z,14.90
2023-02-12T05:30:30.115Z,14.20
2023-02-12T05:32:57.938Z,14.90
2023-02-12T05:35:25.793Z,15.70
2023-02-12T05:37:53.701Z,13.70
2023-02-12T05:40:21.537Z,14.10
2023-02-12T05:42:49.543Z,14.60
2023-02-12T05:45:17.709Z,14.70
2023-02-12T05:47:46.118Z,14.50
2023-02-12T05:50:13.795Z,14.70
2023-02-12T05:52:41.617Z,14.50
2023-02-12T05:55:09.382Z,14.10
2023-02-12T05:57:37.093Z,14.20
2023-02-12T06:00:07.248Z,14.40
2023-02-12T06:02:35.468Z,14.10
2023-02-12T06:05:03.516Z,15.00
2023-02-12T06:07:31.449Z,15.50
2023-02-12T06:09:59.642Z,15.60
2023-02-12T06:12:28.027Z,14.80
2023-02-12T06:14:55.882Z,14.60
2023-02-12T06:17:23.614Z,15.00
2023-02-12T06:19:51.298Z,14.50
2023-02-12T06:22:19.173Z,13.80
2023-02-12T06:24:46.974Z,14.20
2023-02-12T06:27:14.717Z,13.60
2023-02-12T06:29:43.385Z,14.20
2023-02-12T06:32:13.701Z,13.10
2023-02-12T06:34:42.379Z,13.40
2023-02-12T06:37:10.370Z,13.20
2023-02-12T06:39:38.435Z,13.10
2023-02-12T06:42:06.614Z,13.30
2023-02-12T06:44:34.598Z,14.20
2023-02-12T06:47:02.945Z,13.30
2023-02-12T06:49:30.879Z,13.80
2023-02-12T06:51:58.710Z,14.00
2023-02-12T06:54:26.538Z,14.10
2023-02-12T06:56:54.378Z,14.50
2023-02-12T06:59:22.308Z,12.70
2023-02-12T07:01:50.104Z,14.10
2023-02-12T07:04:18.015Z,12.20
2023-02-12T07:06:46.725Z,12.60
2023-02-12T07:09:14.784Z,11.80
2023-02-12T07:11:42.640Z,12.60
2023-02-12T07:14:16.884Z,12.80
2023-02-12T07:16:44.786Z,12.70
2023-02-12T07:19:13.709Z,12.10
2023-02-12T07:21:41.985Z,11.00
2023-02-12T07:24:12.039Z,11.80
2023-02-12T07:26:40.512Z,11.60
2023-02-12T07:29:08.322Z,10.60
2023-02-12T07:31:36.585Z,11.30
2023-02-12T07:34:04.923Z,11.50
2023-02-12T07:36:33.584Z,11.10
2023-02-12T07:39:01.857Z,12.40
2023-02-12T07:41:34.434Z,11.20
2023-02-12T07:44:07.140Z,10.50
2023-02-12T07:46:48.317Z,10.80
2023-02-12T07:49:18.045Z,10.30
2023-02-12T07:51:46.298Z,10.30
2023-02-12T07:54:15.219Z,10.00
2023-02-12T07:56:46.928Z,10.00
2023-02-12T07:59:17.172Z,9.60
2023-02-12T08:01:49.353Z,12.20
2023-02-12T08:04:22.569Z,11.40
2023-02-12T08:06:51.965Z,12.00
2023-02-12T08:09:24.665Z,11.80
2023-02-12T08:11:52.756Z,11.50
2023-02-12T08:14:21.641Z,12.60
2023-02-12T08:16:50.626Z,13.10
2023-02-12T08:19:22.550Z,13.30
2023-02-12T08:21:53.960Z,11.70
2023-02-12T08:24:24.604Z,10.30
2023-02-12T08:26:52.566Z,10.10
2023-02-12T08:29:22.409Z,8.20
2023-02-12T08:31:51.055Z,8.80
2023-02-12T08:34:21.193Z,8.60
2023-02-12T08:36:50.524Z,8.70
2023-02-12T08:39:18.876Z,8.50
2023-02-12T08:41:47.216Z,8.60
2023-02-12T08:44:15.895Z,8.50
2023-02-12T08:46:46.894Z,7.30
2023-02-12T08:49:16.333Z,7.10
2023-02-12T08:51:45.640Z,7.20
2023-02-12T08:54:14.757Z,8.50
2023-02-12T08:56:43.309Z,9.70
2023-02-12T08:59:12.202Z,8.20
2023-02-12T09:01:43.336Z,9.30
2023-02-12T09:04:17.850Z,8.90
2023-02-12T09:06:46.628Z,9.40
2023-02-12T09:09:16.311Z,11.60
2023-02-12T09:11:44.980Z,10.40
2023-02-12T09:14:15.165Z,10.30
2023-02-12T09:16:43.529Z,9.80
2023-02-12T09:19:12.893Z,9.60
2023-02-12T09:21:41.443Z,10.00
2023-02-12T09:24:09.580Z,10.20
2023-02-12T09:26:37.526Z,10.00
2023-02-12T09:29:05.554Z,9.60
2023-02-12T09:31:34.076Z,9.70
2023-02-12T09:34:03.880Z,9.50
2023-02-12T09:36:32.450Z,10.50
2023-02-12T09:39:00.617Z,10.60
2023-02-12T09:41:33.706Z,11.30
2023-02-12T09:44:07.052Z,11.50
2023-02-12T09:46:41.382Z,11.60
2023-02-12T09:49:11.504Z,11.40
2023-02-12T09:51:41.598Z,11.10
2023-02-12T09:54:14.539Z,12.20
2023-02-12T09:56:44.731Z,10.30
2023-02-12T09:59:16.751Z,11.90
2023-02-12T10:01:46.616Z,10.20
2023-02-12T10:04:15.838Z,11.80
2023-02-12T10:06:52.794Z,12.40
2023-02-12T10:09:22.003Z,12.40
2023-02-12T10:11:53.320Z,13.40
2023-02-12T10:14:42.182Z,12.40
2023-02-12T10:17:13.163Z,11.50
2023-02-12T10:19:41.009Z,10.40
2023-02-12T10:22:27.432Z,14.90
2023-02-12T10:25:05.799Z,16.70
2023-02-12T10:27:39.625Z,22.90
2023-02-12T10:30:17.099Z,14.40
2023-02-12T10:32:45.890Z,10.80
2023-02-12T10:35:15.878Z,11.70
2023-02-12T10:37:49.290Z,11.10
2023-02-12T10:40:19.780Z,11.90
2023-02-12T10:42:50.066Z,11.70
2023-02-12T10:45:22.672Z,11.80
2023-02-12T10:47:52.944Z,14.20
2023-02-12T10:50:39.437Z,12.70
2023-02-12T10:53:13.228Z,11.70
2023-02-12T10:55:41.211Z,11.70
2023-02-12T10:58:29.886Z,14.10
2023-02-12T11:00:59.478Z,14.40
2023-02-12T11:03:28.660Z,13.00
2023-02-12T11:05:56.963Z,11.60
2023-02-12T11:08:31.358Z,12.40
2023-02-12T11:11:04.348Z,11.90
2023-02-12T11:13:32.550Z,12.20
2023-02-12T11:16:01.984Z,12.70
2023-02-12T11:18:33.624Z,12.90
2023-02-12T11:21:04.925Z,13.00
2023-02-12T11:23:34.629Z,13.00
2023-02-12T11:26:05.002Z,16.30
2023-02-12T11:28:34.506Z,14.40
2023-02-12T11:31:03.935Z,15.70
2023-02-12T11:33:35.849Z,14.20
2023-02-12T11:36:07.589Z,13.60
2023-02-12T11:38:49.202Z,13.30
2023-02-12T11:41:29.476Z,11.30
2023-02-12T11:43:57.495Z,11.30
2023-02-12T11:46:26.870Z,11.00
2023-02-12T11:48:56.720Z,11.70
2023-02-12T11:51:26.417Z,12.60
2023-02-12T11:53:55.706Z,11.50
2023-02-12T11:56:23.807Z,10.80
2023-02-12T11:58:52.533Z,12.70
2023-02-12T12:01:29.106Z,15.70
2023-02-12T12:04:13.303Z,15.90
2023-02-12T12:06:44.445Z,14.10
2023-02-12T12:09:25.304Z,12.30
2023-02-12T12:12:13.655Z,11.70
2023-02-12T12:15:12.377Z,9.60
2023-02-12T12:18:11.632Z,10.80
2023-02-12T12:20:42.205Z,8.80
2023-02-12T12:23:18.669Z,8.80
2023-02-12T12:25:48.880Z,14.50
2023-02-12T12:28:26.799Z,8.80
2023-02-12T12:31:01.005Z,9.50
2023-02-12T12:33:34.914Z,7.90
2023-02-12T12:36:14.880Z,9.60
2023-02-12T12:38:50.798Z,7.40
2023-02-12T12:41:25.184Z,7.30
2023-02-12T12:44:04.247Z,6.80
2023-02-12T12:46:36.075Z,6.30
2023-02-12T12:49:28.215Z,7.40
2023-02-12T12:52:10.299Z,7.20
2023-02-12T12:54:50.997Z,8.10
2023-02-12T12:57:21.791Z,8.10
2023-02-12T12:59:58.607Z,7.30
2023-02-12T13:02:33.270Z,7.50
2023-02-12T13:05:12.318Z,7.40
2023-02-12T13:07:49.311Z,5.90
2023-02-12T13:10:24.560Z,5.30
2023-02-12T13:13:05.420Z,5.10
2023-02-12T13:15:36.146Z,5.50
2023-02-12T13:18:06.806Z,5.20
2023-02-12T13:20:49.787Z,7.20
2023-02-12T13:23:34.560Z,4.60
2023-02-12T13:26:08.282Z,3.80
2023-02-12T13:28:36.267Z,4.10
2023-02-12T13:31:16.266Z,4.20
2023-02-12T13:33:59.904Z,4.90
2023-02-12T13:36:27.802Z,4.00
2023-02-12T13:38:58.410Z,4.70
2023-02-12T13:41:27.278Z,4.70
2023-02-12T13:44:13.801Z,5.80
2023-02-12T13:46:51.723Z,4.90
2023-02-12T13:49:19.619Z,5.80
2023-02-12T13:51:49.524Z,6.90
2023-02-12T13:54:56.336Z,5.00
2023-02-12T13:57:24.107Z,4.20
2023-02-12T13:59:55.669Z,4.30
2023-02-12T14:02:33.683Z,4.20
2023-02-12T14:05:21.324Z,3.90
2023-02-12T14:07:51.508Z,4.60
2023-02-12T14:10:33.685Z,5.90
2023-02-12T14:13:17.044Z,4.50
2023-02-12T14:15:56.522Z,3.80
2023-02-12T14:18:35.768Z,4.80
2023-02-12T14:21:10.266Z,5.20
2023-02-12T14:23:39.499Z,4.30
2023-02-12T14:26:18.171Z,5.10
2023-02-12T14:29:03.357Z,5.40
2023-02-12T14:31:36.116Z,5.10
2023-02-12T14:34:10.397Z,5.00
2023-02-12T14:36:40.797Z,5.00
2023-02-12T14:39:21.291Z,4.60
2023-02-12T14:41:52.306Z,5.20
2023-02-12T14:44:25.076Z,6.30
2023-02-12T14:46:54.792Z,6.50
2023-02-12T14:49:34.337Z,5.70
2023-02-12T14:52:12.006Z,6.30
2023-02-12T14:54:45.990Z,5.00
2023-02-12T14:57:23.318Z,5.40
2023-02-12T15:00:12.346Z,5.50
2023-02-12T15:02:43.013Z,6.50
2023-02-12T15:05:23.161Z,6.80
2023-02-12T15:08:03.550Z,7.30
2023-02-12T15:10:41.434Z,7.10
2023-02-12T15:13:31.503Z,6.70
2023-02-12T15:16:07.592Z,6.90
2023-02-12T15:18:36.148Z,6.80
2023-02-12T15:21:13.945Z,6.20
2023-02-12T15:23:43.105Z,6.80
2023-02-12T15:26:16.288Z,7.80
2023-02-12T15:28:48.946Z,7.90
2023-02-12T15:31:20.214Z,7.70
2023-02-12T15:33:52.934Z,7.40
2023-02-12T15:36:22.441Z,7.30
2023-02-12T15:38:58.601Z,6.50
2023-02-12T15:41:32.521Z,7.60
2023-02-12T15:44:01.521Z,6.40
2023-02-12T15:46:30.201Z,7.80
2023-02-12T15:48:59.693Z,8.70
2023-02-12T15:51:35.598Z,7.30
2023-02-12T15:54:05.905Z,7.00
2023-02-12T15:56:36.365Z,7.80
2023-02-12T15:59:04.821Z,8.90
2023-02-12T16:01:35.426Z,8.40
2023-02-12T16:04:06.466Z,8.20
2023-02-12T16:06:36.854Z,8.10
2023-02-12T16:09:08.838Z,7.80
2023-02-12T16:11:37.929Z,7.50
2023-02-12T16:14:08.880Z,6.80
2023-02-12T16:16:57.017Z,7.40
2023-02-12T16:19:27.794Z,7.00
2023-02-12T16:22:00.482Z,7.30
2023-02-12T16:24:32.788Z,7.40
2023-02-12T16:27:10.207Z,8.20
2023-02-12T16:29:43.775Z,8.50
2023-02-12T16:32:27.023Z,7.80
2023-02-12T16:35:21.921Z,7.70
2023-02-12T16:37:51.820Z,6.80
2023-02-12T16:40:26.165Z,6.50
2023-02-12T16:42:55.047Z,7.40
2023-02-12T16:45:29.761Z,7.40
2023-02-12T16:48:05.004Z,7.00
2023-02-12T16:50:34.329Z,7.60
2023-02-12T16:53:22.740Z,8.30
2023-02-12T16:55:51.307Z,7.60
2023-02-12T16:58:19.793Z,7.80
2023-02-12T17:00:48.716Z,7.50
2023-02-12T17:03:16.959Z,8.20
2023-02-12T17:05:49.855Z,8.20
2023-02-12T17:08:20.089Z,8.10
2023-02-12T17:10:48.565Z,8.00
2023-02-12T17:13:17.345Z,7.50
2023-02-12T17:15:49.194Z,7.30
2023-02-12T17:18:18.354Z,8.20
2023-02-12T17:20:55.165Z,10.50
2023-02-12T17:23:24.266Z,10.60
2023-02-12T17:25:54.468Z,10.90
2023-02-12T17:28:26.241Z,9.60
2023-02-12T17:31:07.186Z,9.90
2023-02-12T17:33:36.207Z,11.40
2023-02-12T17:36:06.347Z,11.20
2023-02-12T17:38:36.853Z,10.80
2023-02-12T17:41:09.426Z,10.30
2023-02-12T17:43:38.048Z,10.40
2023-02-12T17:46:14.548Z,9.70
2023-02-12T17:48:42.732Z,8.40
2023-02-12T17:51:11.948Z,8.40
2023-02-12T17:53:40.336Z,8.10
2023-02-12T17:56:15.848Z,8.50
2023-02-12T17:58:44.558Z,7.60
2023-02-12T18:01:14.285Z,9.30
2023-02-12T18:03:42.952Z,9.70
2023-02-12T18:06:17.033Z,9.80
2023-02-12T18:08:46.284Z,8.10
2023-02-12T18:11:14.947Z,7.30
2023-02-12T18:13:43.424Z,7.30
2023-02-12T18:16:11.812Z,7.30
2023-02-12T18:18:43.019Z,8.10
2023-02-12T18:21:11.907Z,7.80
2023-02-12T18:23:40.937Z,8.00
2023-02-12T18:26:16.685Z,8.70
2023-02-12T18:28:45.885Z,7.80
2023-02-12T18:31:15.264Z,8.10
2023-02-12T18:33:44.274Z,9.10
2023-02-12T18:36:17.528Z,10.30
2023-02-12T18:38:46.964Z,7.60
2023-02-12T18:41:16.681Z,7.20
2023-02-12T18:43:46.076Z,7.50
2023-02-12T18:46:16.557Z,12.80
2023-02-12T18:48:46.166Z,7.90
2023-02-12T18:51:15.616Z,9.20
2023-02-12T18:53:44.257Z,7.00
2023-02-12T18:56:14.049Z,9.70
2023-02-12T18:58:43.099Z,8.50
2023-02-12T19:01:19.511Z,7.50
2023-02-12T19:03:49.987Z,7.40
2023-02-12T19:06:20.619Z,7.50
2023-02-12T19:08:50.725Z,7.80
2023-02-12T19:11:20.178Z,8.40
2023-02-12T19:13:50.141Z,8.70
2023-02-12T19:16:19.864Z,9.50
2023-02-12T19:18:56.975Z,10.10
2023-02-12T19:21:28.566Z,9.50
2023-02-12T19:24:00.371Z,8.80
2023-02-12T19:26:29.867Z,9.00
2023-02-12T19:28:59.122Z,10.40
2023-02-12T19:31:42.121Z,10.60
2023-02-12T19:34:17.041Z,10.00
2023-02-12T19:36:46.624Z,10.00
2023-02-12T19:39:17.204Z,10.00
2023-02-12T19:41:47.387Z,10.00
2023-02-12T19:44:18.882Z,9.40
2023-02-12T19:46:48.649Z,9.10
2023-02-12T19:49:19.701Z,9.70
2023-02-12T19:51:48.667Z,9.40
2023-02-12T19:54:19.789Z,8.90
2023-02-12T19:56:49.192Z,8.80
2023-02-12T19:59:20.459Z,9.30
2023-02-12T20:01:51.421Z,10.60
2023-02-12T20:04:23.112Z,10.60
2023-02-12T20:06:52.629Z,10.40
2023-02-12T20:09:22.455Z,10.50
2023-02-12T20:11:51.596Z,10.50
2023-02-12T20:14:23.334Z,10.10
2023-02-12T20:16:56.007Z,11.00
2023-02-12T20:19:31.357Z,9.40
2023-02-12T20:22:01.910Z,8.90
2023-02-12T20:24:30.858Z,11.60
2023-02-12T20:26:59.967Z,12.60
2023-02-12T20:29:29.687Z,12.90
2023-02-12T20:31:59.423Z,10.30
2023-02-12T20:34:32.912Z,11.30
2023-02-12T20:37:06.379Z,11.00
2023-02-12T20:39:35.801Z,18.80
2023-02-12T20:42:05.200Z,13.80
2023-02-12T20:44:34.773Z,9.20
2023-02-12T20:47:04.242Z,11.30
2023-02-12T20:49:32.453Z,10.00
2023-02-12T20:52:03.923Z,9.60
2023-02-12T20:54:34.129Z,9.70
2023-02-12T20:57:06.909Z,10.60
2023-02-12T20:59:35.735Z,11.00
2023-02-12T21:02:05.015Z,9.00
2023-02-12T21:04:34.082Z,9.60
2023-02-12T21:07:02.268Z,9.50
2023-02-12T21:09:30.662Z,10.20
2023-02-12T21:11:59.762Z,10.40
2023-02-12T21:14:28.043Z,11.00
2023-02-12T21:16:57.001Z,11.40
2023-02-12T21:19:28.186Z,9.80
2023-02-12T21:21:56.715Z,11.00
2023-02-12T21:24:25.865Z,9.90
2023-02-12T21:26:54.917Z,10.00
2023-02-12T21:29:24.125Z,9.40
2023-02-12T21:31:52.783Z,9.90
2023-02-12T21:34:22.809Z,9.20
2023-02-12T21:36:52.726Z,9.50
2023-02-12T21:39:25.904Z,9.00
2023-02-12T21:41:58.512Z,9.00
2023-02-12T21:44:27.798Z,9.00
2023-02-12T21:46:57.878Z,8.80
2023-02-12T21:49:28.918Z,9.00
2023-02-12T21:52:00.218Z,9.20
2023-02-12T21:54:29.908Z,8.60
2023-02-12T21:56:59.404Z,9.40
2023-02-12T21:59:30.802Z,8.80
2023-02-12T22:02:01.845Z,9.80
2023-02-12T22:04:29.897Z,9.50
2023-02-12T22:06:59.963Z,11.00
2023-02-12T22:09:29.207Z,14.10
2023-02-12T22:11:57.402Z,11.80
2023-02-12T22:14:25.205Z,14.70
2023-02-12T22:16:53.190Z,13.80
2023-02-12T22:19:22.674Z,12.20
2023-02-12T22:21:51.926Z,11.20
2023-02-12T22:24:20.300Z,11.00
2023-02-12T22:26:48.663Z,10.40
2023-02-12T22:29:17.116Z,10.10
2023-02-12T22:31:45.814Z,9.20
2023-02-12T22:34:15.090Z,8.80
2023-02-12T22:36:42.981Z,8.00
2023-02-12T22:39:13.192Z,8.60
2023-02-12T22:41:44.926Z,8.80
2023-02-12T22:44:13.684Z,8.40
2023-02-12T22:46:44.093Z,8.00
2023-02-12T22:49:12.896Z,8.60
2023-02-12T22:51:42.147Z,9.30
2023-02-12T22:54:12.973Z,9.20
2023-02-12T22:56:41.268Z,9.80
2023-02-12T22:59:10.242Z,8.90
2023-02-12T23:01:40.069Z,9.10
2023-02-12T23:04:12.903Z,8.40
2023-02-12T23:06:40.788Z,7.90
2023-02-12T23:09:11.527Z,7.90
2023-02-12T23:11:39.693Z,8.20
2023-02-12T23:14:07.882Z,8.50
2023-02-12T23:16:36.262Z,7.80
2023-02-12T23:19:05.359Z,8.60
2023-02-12T23:21:34.026Z,8.40
2023-02-12T23:24:02.529Z,8.40
2023-02-12T23:26:31.838Z,8.10
2023-02-12T23:29:00.263Z,8.40
2023-02-12T23:31:28.491Z,8.10
2023-02-12T23:33:56.467Z,9.20
2023-02-12T23:36:24.532Z,7.70
2023-02-12T23:38:52.503Z,8.70
2023-02-12T23:41:20.982Z,8.70
2023-02-12T23:43:48.940Z,8.20
2023-02-12T23:46:16.853Z,8.00
2023-02-12T23:48:45.193Z,8.40
2023-02-12T23:51:13.262Z,8.30
2023-02-12T23:53:41.435Z,7.50
2023-02-12T23:56:09.267Z,7.90
2023-02-12T23:58:37.569Z,7.30
